createdAt,value
2023-04-12T00:09:34.142Z,1009.43
2023-04-12T00:24:33.833Z,1009.34
2023-04-12T00:39:34.394Z,1009.27
2023-04-12T00:54:34.994Z,1009.20
2023-04-12T01:09:35.625Z,1008.95
2023-04-12T01:24:35.753Z,1008.87
2023-04-12T01:39:35.909Z,1008.74
2023-04-12T01:54:36.533Z,1008.78
2023-04-12T02:09:37.485Z,1008.59
2023-04-12T02:24:37.671Z,1008.48
2023-04-12T02:39:38.086Z,1008.42
2023-04-12T02:54:39.037Z,1008.11
2023-04-12T03:09:39.190Z,1007.93
2023-04-12T03:24:39.990Z,1007.79
2023-04-12T03:39:40.540Z,1007.56
2023-04-12T03:54:41.183Z,1007.30
2023-04-12T04:09:41.322Z,1007.15
2023-04-12T04:24:41.897Z,1007.13
2023-04-12T04:39:42.945Z,1007.04
2023-04-12T04:54:43.156Z,1006.95
2023-04-12T05:09:43.231Z,1006.87
2023-04-12T05:24:43.780Z,1006.73
2023-04-12T05:39:43.466Z,1006.71
2023-04-12T05:54:45.116Z,1006.47
2023-04-12T06:09:45.045Z,1006.22
2023-04-12T06:24:45.189Z,1005.99
2023-04-12T06:39:45.305Z,1005.84
2023-04-12T06:54:45.412Z,1005.77
2023-04-12T07:09:45.719Z,1005.55
2023-04-12T07:24:45.625Z,1005.37
2023-04-12T07:39:46.245Z,1005.20
2023-04-12T07:54:46.402Z,1005.01
2023-04-12T08:09:47.489Z,1004.74
2023-04-12T08:24:48.583Z,1004.59
2023-04-12T08:39:49.173Z,1004.35
2023-04-12T08:54:49.802Z,1004.13
2023-04-12T09:09:50.399Z,1004.03
2023-04-12T09:24:51.876Z,1003.79
2023-04-12T09:39:52.176Z,1003.41
2023-04-12T09:54:52.896Z,1003.12
2023-04-12T10:09:53.494Z,1002.72
2023-04-12T10:24:54.341Z,1002.42
2023-04-12T10:39:55.546Z,1002.22
2023-04-12T10:54:56.953Z,1001.81
2023-04-12T11:09:57.576Z,1001.59
2023-04-12T11:24:57.766Z,1001.40
2023-04-12T11:39:58.640Z,1001.03
2023-04-12T11:55:00.007Z,1000.85
2023-04-12T12:10:00.894Z,1000.55
2023-04-12T12:25:02.152Z,1000.20
2023-04-12T12:40:02.526Z,1000.03
2023-04-12T12:55:03.833Z,999.77
2023-04-12T13:10:04.834Z,999.54
2023-04-12T13:25:05.724Z,999.20
2023-04-12T13:40:05.866Z,999.00
2023-04-12T13:55:07.060Z,998.78
2023-04-12T14:10:07.070Z,998.54
2023-04-12T14:25:07.620Z,998.45
2023-04-12T14:40:07.879Z,998.40
2023-04-12T14:55:08.178Z,998.53
2023-04-12T15:10:08.574Z,998.72
2023-04-12T15:25:08.769Z,998.91
2023-04-12T15:40:09.301Z,998.95
2023-04-12T15:55:09.998Z,998.85
2023-04-12T16:10:10.489Z,998.67
2023-04-12T16:25:11.086Z,998.39
2023-04-12T16:40:11.268Z,998.21
2023-04-12T16:55:11.937Z,998.22
2023-04-12T17:10:12.402Z,998.10
2023-04-12T17:25:12.852Z,998.08
2023-04-12T17:40:12.904Z,998.01
2023-04-12T17:55:12.967Z,997.88
2023-04-12T18:10:13.501Z,997.74
2023-04-12T18:25:14.084Z,997.77
2023-04-12T18:40:14.496Z,997.74
2023-04-12T18:55:14.878Z,997.59
2023-04-12T19:10:15.580Z,997.71
2023-04-12T19:25:17.611Z,997.37
2023-04-12T19:40:19.569Z,997.40
2023-04-12T19:55:19.821Z,997.30
2023-04-12T20:10:20.449Z,997.24
2023-04-12T20:25:20.933Z,997.20
2023-04-12T20:40:21.061Z,996.83
2023-04-12T20:55:21.198Z,996.80
2023-04-12T21:10:21.764Z,996.71
2023-04-12T21:25:21.870Z,996.82
2023-04-12T21:40:22.099Z,996.75
2023-04-12T21:55:22.620Z,996.75
2023-04-12T22:10:23.244Z,996.81
2023-04-12T22:25:23.755Z,996.81
2023-04-12T22:40:24.354Z,997.15
2023-04-12T22:55:24.986Z,996.99
2023-04-12T23:10:25.551Z,996.88
2023-04-12T23:25:27.463Z,996.68
2023-04-12T23:40:28.007Z,996.78
2023-04-12T23:55:29.864Z,996.67
